sensor_id;sensor_type;location;lat;lon;timestamp;temperature;humidity
32895;DHT22;19251;49.484;8.260;2023-04-25T00:03:14;13.40;20.10
32895;DHT22;19251;49.484;8.260;2023-04-25T00:08:16;13.40;20.20
32895;DHT22;19251;49.484;8.260;2023-04-25T00:13:18;13.40;20.20
32895;DHT22;19251;49.484;8.260;2023-04-25T00:18:21;13.40;20.20
32895;DHT22;19251;49.484;8.260;2023-04-25T00:28:25;13.50;20.50
32895;DHT22;19251;49.484;8.260;2023-04-25T00:33:27;13.40;20.50
32895;DHT22;19251;49.484;8.260;2023-04-25T00:38:29;13.40;20.40
32895;DHT22;19251;49.484;8.260;2023-04-25T00:43:32;13.40;20.40
32895;DHT22;19251;49.484;8.260;2023-04-25T00:48:34;13.30;20.40
32895;DHT22;19251;49.484;8.260;2023-04-25T00:53:37;13.30;20.50
32895;DHT22;19251;49.484;8.260;2023-04-25T00:58:39;13.30;20.60
32895;DHT22;19251;49.484;8.260;2023-04-25T01:03:42;13.30;20.60
32895;DHT22;19251;49.484;8.260;2023-04-25T01:08:45;13.30;20.70
32895;DHT22;19251;49.484;8.260;2023-04-25T01:13:47;13.30;20.90
32895;DHT22;19251;49.484;8.260;2023-04-25T01:18:50;13.20;21.10
32895;DHT22;19251;49.484;8.260;2023-04-25T01:23:53;13.20;21.20
32895;DHT22;19251;49.484;8.260;2023-04-25T01:28:56;13.20;21.40
32895;DHT22;19251;49.484;8.260;2023-04-25T01:33:58;13.20;21.60
32895;DHT22;19251;49.484;8.260;2023-04-25T01:39:03;13.20;21.80
32895;DHT22;19251;49.484;8.260;2023-04-25T01:44:05;13.20;21.80
32895;DHT22;19251;49.484;8.260;2023-04-25T01:54:10;13.20;22.10
32895;DHT22;19251;49.484;8.260;2023-04-25T01:59:13;13.20;22.30
32895;DHT22;19251;49.484;8.260;2023-04-25T02:04:15;13.20;22.60
32895;DHT22;19251;49.484;8.260;2023-04-25T02:14:20;13.10;22.70
32895;DHT22;19251;49.484;8.260;2023-04-25T02:24:26;13.10;22.80
32895;DHT22;19251;49.484;8.260;2023-04-25T02:29:30;13.10;22.80
32895;DHT22;19251;49.484;8.260;2023-04-25T02:34:32;13.10;22.90
32895;DHT22;19251;49.484;8.260;2023-04-25T02:39:35;13.20;23.00
32895;DHT22;19251;49.484;8.260;2023-04-25T02:44:37;13.10;23.00
32895;DHT22;19251;49.484;8.260;2023-04-25T02:49:39;13.20;23.10
32895;DHT22;19251;49.484;8.260;2023-04-25T02:54:42;13.10;23.20
32895;DHT22;19251;49.484;8.260;2023-04-25T02:59:45;13.10;23.20
32895;DHT22;19251;49.484;8.260;2023-04-25T03:04:47;13.10;23.30
32895;DHT22;19251;49.484;8.260;2023-04-25T03:09:50;13.10;23.40
32895;DHT22;19251;49.484;8.260;2023-04-25T03:14:52;13.10;23.50
32895;DHT22;19251;49.484;8.260;2023-04-25T03:19:55;13.10;23.50
32895;DHT22;19251;49.484;8.260;2023-04-25T03:24:57;13.00;23.50
32895;DHT22;19251;49.484;8.260;2023-04-25T03:29:59;13.00;23.60
32895;DHT22;19251;49.484;8.260;2023-04-25T03:35:01;13.00;23.70
32895;DHT22;19251;49.484;8.260;2023-04-25T03:45:08;12.90;23.80
32895;DHT22;19251;49.484;8.260;2023-04-25T03:50:11;12.90;23.80
32895;DHT22;19251;49.484;8.260;2023-04-25T03:55:13;12.90;23.90
32895;DHT22;19251;49.484;8.260;2023-04-25T04:00:15;12.90;24.00
32895;DHT22;19251;49.484;8.260;2023-04-25T04:05:17;12.90;24.00
32895;DHT22;19251;49.484;8.260;2023-04-25T04:10:22;12.90;24.10
32895;DHT22;19251;49.484;8.260;2023-04-25T04:15:24;12.80;24.10
32895;DHT22;19251;49.484;8.260;2023-04-25T04:20:29;12.80;24.20
32895;DHT22;19251;49.484;8.260;2023-04-25T04:25:32;12.80;24.20
32895;DHT22;19251;49.484;8.260;2023-04-25T04:30:36;12.80;24.20
32895;DHT22;19251;49.484;8.260;2023-04-25T04:35:39;12.80;24.30
32895;DHT22;19251;49.484;8.260;2023-04-25T04:40:43;12.80;24.30
32895;DHT22;19251;49.484;8.260;2023-04-25T04:45:45;12.80;24.40
32895;DHT22;19251;49.484;8.260;2023-04-25T04:50:48;12.80;24.50
32895;DHT22;19251;49.484;8.260;2023-04-25T04:55:51;12.80;24.40
32895;DHT22;19251;49.484;8.260;2023-04-25T05:00:55;12.80;24.50
32895;DHT22;19251;49.484;8.260;2023-04-25T05:06:00;12.80;24.70
32895;DHT22;19251;49.484;8.260;2023-04-25T05:11:03;12.80;24.80
32895;DHT22;19251;49.484;8.260;2023-04-25T05:16:06;12.80;24.80
32895;DHT22;19251;49.484;8.260;2023-04-25T05:21:08;12.90;25.00
32895;DHT22;19251;49.484;8.260;2023-04-25T05:26:11;13.00;25.00
32895;DHT22;19251;49.484;8.260;2023-04-25T05:31:17;13.00;25.00
32895;DHT22;19251;49.484;8.260;2023-04-25T05:36:19;13.10;24.90
32895;DHT22;19251;49.484;8.260;2023-04-25T05:41:22;13.10;25.00
32895;DHT22;19251;49.484;8.260;2023-04-25T05:51:28;13.20;25.00
32895;DHT22;19251;49.484;8.260;2023-04-25T05:56:31;13.30;25.20
32895;DHT22;19251;49.484;8.260;2023-04-25T06:01:33;13.40;25.10
32895;DHT22;19251;49.484;8.260;2023-04-25T06:06:36;13.40;25.00
32895;DHT22;19251;49.484;8.260;2023-04-25T06:11:38;13.50;24.90
32895;DHT22;19251;49.484;8.260;2023-04-25T06:16:40;13.60;24.90
32895;DHT22;19251;49.484;8.260;2023-04-25T06:31:47;13.70;24.90
32895;DHT22;19251;49.484;8.260;2023-04-25T06:36:49;13.70;24.60
32895;DHT22;19251;49.484;8.260;2023-04-25T06:41:51;13.70;24.40
32895;DHT22;19251;49.484;8.260;2023-04-25T06:47:02;13.60;24.10
32895;DHT22;19251;49.484;8.260;2023-04-25T06:57:07;13.50;23.60
32895;DHT22;19251;49.484;8.260;2023-04-25T07:02:11;13.40;23.70
32895;DHT22;19251;49.484;8.260;2023-04-25T07:07:13;13.40;23.80
32895;DHT22;19251;49.484;8.260;2023-04-25T07:12:16;13.40;24.10
32895;DHT22;19251;49.484;8.260;2023-04-25T07:17:18;13.30;23.90
32895;DHT22;19251;49.484;8.260;2023-04-25T07:22:20;13.30;24.20
32895;DHT22;19251;49.484;8.260;2023-04-25T07:27:23;13.40;24.00
32895;DHT22;19251;49.484;8.260;2023-04-25T07:32:25;13.30;23.10
32895;DHT22;19251;49.484;8.260;2023-04-25T07:37:29;13.10;22.90
32895;DHT22;19251;49.484;8.260;2023-04-25T07:42:32;13.10;23.20
32895;DHT22;19251;49.484;8.260;2023-04-25T07:52:38;13.30;23.30
32895;DHT22;19251;49.484;8.260;2023-04-25T07:57:41;13.40;23.20
32895;DHT22;19251;49.484;8.260;2023-04-25T08:02:43;13.50;23.30
32895;DHT22;19251;49.484;8.260;2023-04-25T08:07:48;13.60;23.10
32895;DHT22;19251;49.484;8.260;2023-04-25T08:12:51;13.70;22.50
32895;DHT22;19251;49.484;8.260;2023-04-25T08:17:53;13.80;22.50
32895;DHT22;19251;49.484;8.260;2023-04-25T08:22:55;13.90;22.40
32895;DHT22;19251;49.484;8.260;2023-04-25T08:27:58;14.00;22.40
32895;DHT22;19251;49.484;8.260;2023-04-25T08:33:01;14.10;21.10
32895;DHT22;19251;49.484;8.260;2023-04-25T08:38:06;14.10;20.90
32895;DHT22;19251;49.484;8.260;2023-04-25T08:43:09;14.10;21.10
32895;DHT22;19251;49.484;8.260;2023-04-25T08:48:15;14.20;21.00
32895;DHT22;19251;49.484;8.260;2023-04-25T08:53:22;14.40;20.90
32895;DHT22;19251;49.484;8.260;2023-04-25T08:58:24;14.60;21.10
32895;DHT22;19251;49.484;8.260;2023-04-25T09:03:27;14.80;20.30
32895;DHT22;19251;49.484;8.260;2023-04-25T09:08:30;15.00;20.00
32895;DHT22;19251;49.484;8.260;2023-04-25T09:13:32;15.10;19.50
32895;DHT22;19251;49.484;8.260;2023-04-25T09:18:36;15.40;19.80
32895;DHT22;19251;49.484;8.260;2023-04-25T09:28:42;15.70;18.40
32895;DHT22;19251;49.484;8.260;2023-04-25T09:33:45;15.80;17.70
32895;DHT22;19251;49.484;8.260;2023-04-25T09:38:48;15.90;17.70
32895;DHT22;19251;49.484;8.260;2023-04-25T09:43:50;15.90;17.40
32895;DHT22;19251;49.484;8.260;2023-04-25T09:48:53;16.00;16.80
32895;DHT22;19251;49.484;8.260;2023-04-25T09:53:56;16.00;16.60
32895;DHT22;19251;49.484;8.260;2023-04-25T09:58:59;16.00;16.30
32895;DHT22;19251;49.484;8.260;2023-04-25T10:04:01;16.10;16.50
32895;DHT22;19251;49.484;8.260;2023-04-25T10:09:07;16.00;15.70
32895;DHT22;19251;49.484;8.260;2023-04-25T10:14:10;15.90;15.70
32895;DHT22;19251;49.484;8.260;2023-04-25T10:19:13;15.90;15.60
32895;DHT22;19251;49.484;8.260;2023-04-25T10:24:17;15.90;15.40
32895;DHT22;19251;49.484;8.260;2023-04-25T10:29:23;16.00;15.00
32895;DHT22;19251;49.484;8.260;2023-04-25T10:34:38;15.90;14.60
32895;DHT22;19251;49.484;8.260;2023-04-25T10:39:41;15.90;15.00
32895;DHT22;19251;49.484;8.260;2023-04-25T10:45:00;16.10;15.20
32895;DHT22;19251;49.484;8.260;2023-04-25T10:50:06;16.10;14.60
32895;DHT22;19251;49.484;8.260;2023-04-25T10:55:09;16.30;14.30
32895;DHT22;19251;49.484;8.260;2023-04-25T11:05:22;16.20;13.70
32895;DHT22;19251;49.484;8.260;2023-04-25T11:10:28;16.00;13.40
32895;DHT22;19251;49.484;8.260;2023-04-25T11:15:31;16.00;13.90
32895;DHT22;19251;49.484;8.260;2023-04-25T11:20:33;16.00;13.70
32895;DHT22;19251;49.484;8.260;2023-04-25T11:25:35;16.00;13.90
32895;DHT22;19251;49.484;8.260;2023-04-25T11:30:40;16.10;13.80
32895;DHT22;19251;49.484;8.260;2023-04-25T11:35:49;16.20;13.30
32895;DHT22;19251;49.484;8.260;2023-04-25T11:40:52;16.20;13.60
32895;DHT22;19251;49.484;8.260;2023-04-25T11:45:54;16.40;13.70
32895;DHT22;19251;49.484;8.260;2023-04-25T11:55:59;16.40;13.00
32895;DHT22;19251;49.484;8.260;2023-04-25T12:01:01;16.50;13.10
32895;DHT22;19251;49.484;8.260;2023-04-25T12:06:04;16.60;13.20
32895;DHT22;19251;49.484;8.260;2023-04-25T12:11:17;16.80;13.00
32895;DHT22;19251;49.484;8.260;2023-04-25T12:16:21;16.80;12.60
32895;DHT22;19251;49.484;8.260;2023-04-25T12:26:26;16.80;12.40
32895;DHT22;19251;49.484;8.260;2023-04-25T12:31:47;16.90;12.50
32895;DHT22;19251;49.484;8.260;2023-04-25T12:36:50;17.10;12.50
32895;DHT22;19251;49.484;8.260;2023-04-25T12:41:52;17.40;12.40
32895;DHT22;19251;49.484;8.260;2023-04-25T12:52:01;17.60;11.40
32895;DHT22;19251;49.484;8.260;2023-04-25T12:57:04;17.70;11.30
32895;DHT22;19251;49.484;8.260;2023-04-25T13:02:06;17.70;10.70
32895;DHT22;19251;49.484;8.260;2023-04-25T13:07:08;17.70;10.40
32895;DHT22;19251;49.484;8.260;2023-04-25T13:12:10;17.80;10.60
32895;DHT22;19251;49.484;8.260;2023-04-25T13:17:12;17.80;10.30
32895;DHT22;19251;49.484;8.260;2023-04-25T13:22:15;17.80;10.10
32895;DHT22;19251;49.484;8.260;2023-04-25T13:27:18;17.70;10.10
32895;DHT22;19251;49.484;8.260;2023-04-25T13:32:20;17.60;10.00
32895;DHT22;19251;49.484;8.260;2023-04-25T13:37:22;17.60;10.00
32895;DHT22;19251;49.484;8.260;2023-04-25T13:42:26;17.80;10.60
32895;DHT22;19251;49.484;8.260;2023-04-25T13:47:28;18.20;10.30
32895;DHT22;19251;49.484;8.260;2023-04-25T13:52:30;18.40;9.30
32895;DHT22;19251;49.484;8.260;2023-04-25T13:57:33;18.30;9.00
32895;DHT22;19251;49.484;8.260;2023-04-25T14:02:36;18.20;9.10
32895;DHT22;19251;49.484;8.260;2023-04-25T14:07:38;18.10;8.70
32895;DHT22;19251;49.484;8.260;2023-04-25T14:22:47;17.50;8.50
32895;DHT22;19251;49.484;8.260;2023-04-25T14:27:49;17.30;8.50
32895;DHT22;19251;49.484;8.260;2023-04-25T14:32:52;17.20;8.70
32895;DHT22;19251;49.484;8.260;2023-04-25T14:37:54;17.20;8.40
32895;DHT22;19251;49.484;8.260;2023-04-25T14:42:56;17.20;8.70
32895;DHT22;19251;49.484;8.260;2023-04-25T14:47:58;17.20;8.40
32895;DHT22;19251;49.484;8.260;2023-04-25T14:53:01;17.20;8.80
32895;DHT22;19251;49.484;8.260;2023-04-25T14:58:03;17.40;8.50
32895;DHT22;19251;49.484;8.260;2023-04-25T15:03:05;17.50;7.60
32895;DHT22;19251;49.484;8.260;2023-04-25T15:08:09;17.50;7.80
32895;DHT22;19251;49.484;8.260;2023-04-25T15:13:12;17.50;7.70
32895;DHT22;19251;49.484;8.260;2023-04-25T15:18:14;17.60;7.50
32895;DHT22;19251;49.484;8.260;2023-04-25T15:23:17;17.50;6.90
32895;DHT22;19251;49.484;8.260;2023-04-25T15:28:19;17.40;7.10
32895;DHT22;19251;49.484;8.260;2023-04-25T15:33:23;17.30;6.70
32895;DHT22;19251;49.484;8.260;2023-04-25T15:38:25;17.30;6.60
32895;DHT22;19251;49.484;8.260;2023-04-25T15:43:27;17.20;6.70
32895;DHT22;19251;49.484;8.260;2023-04-25T15:48:30;17.20;6.60
32895;DHT22;19251;49.484;8.260;2023-04-25T15:53:33;17.10;6.40
32895;DHT22;19251;49.484;8.260;2023-04-25T15:58:35;16.90;6.50
32895;DHT22;19251;49.484;8.260;2023-04-25T16:03:37;16.90;6.80
32895;DHT22;19251;49.484;8.260;2023-04-25T16:08:40;16.80;6.50
32895;DHT22;19251;49.484;8.260;2023-04-25T16:13:42;16.70;6.10
32895;DHT22;19251;49.484;8.260;2023-04-25T16:18:44;16.50;6.00
32895;DHT22;19251;49.484;8.260;2023-04-25T16:23:47;16.40;6.00
32895;DHT22;19251;49.484;8.260;2023-04-25T16:28:49;16.20;6.40
32895;DHT22;19251;49.484;8.260;2023-04-25T16:33:51;16.20;6.70
32895;DHT22;19251;49.484;8.260;2023-04-25T16:38:54;16.10;6.30
32895;DHT22;19251;49.484;8.260;2023-04-25T16:43:56;16.00;6.20
32895;DHT22;19251;49.484;8.260;2023-04-25T16:48:58;15.90;6.20
32895;DHT22;19251;49.484;8.260;2023-04-25T16:54:00;15.80;6.40
32895;DHT22;19251;49.484;8.260;2023-04-25T16:59:02;15.80;6.60
32895;DHT22;19251;49.484;8.260;2023-04-25T17:04:04;15.80;6.50
32895;DHT22;19251;49.484;8.260;2023-04-25T17:09:06;15.70;6.70
32895;DHT22;19251;49.484;8.260;2023-04-25T17:14:08;15.60;6.60
32895;DHT22;19251;49.484;8.260;2023-04-25T17:19:11;15.50;6.50
32895;DHT22;19251;49.484;8.260;2023-04-25T17:24:13;15.40;6.70
32895;DHT22;19251;49.484;8.260;2023-04-25T17:29:16;15.30;6.70
32895;DHT22;19251;49.484;8.260;2023-04-25T17:34:19;15.20;6.80
32895;DHT22;19251;49.484;8.260;2023-04-25T17:39:22;15.20;6.90
32895;DHT22;19251;49.484;8.260;2023-04-25T17:44:25;15.20;6.80
32895;DHT22;19251;49.484;8.260;2023-04-25T17:49:27;15.10;7.00
32895;DHT22;19251;49.484;8.260;2023-04-25T17:54:30;15.00;6.60
32895;DHT22;19251;49.484;8.260;2023-04-25T17:59:32;15.00;6.60
32895;DHT22;19251;49.484;8.260;2023-04-25T18:04:34;14.90;6.70
32895;DHT22;19251;49.484;8.260;2023-04-25T18:09:36;14.90;7.20
32895;DHT22;19251;49.484;8.260;2023-04-25T18:14:38;14.80;7.40
32895;DHT22;19251;49.484;8.260;2023-04-25T18:19:40;14.80;7.50
32895;DHT22;19251;49.484;8.260;2023-04-25T18:24:43;14.70;7.90
32895;DHT22;19251;49.484;8.260;2023-04-25T18:29:46;14.60;7.80
32895;DHT22;19251;49.484;8.260;2023-04-25T18:39:51;14.40;8.10
32895;DHT22;19251;49.484;8.260;2023-04-25T18:44:53;14.20;8.50
32895;DHT22;19251;49.484;8.260;2023-04-25T18:49:55;14.10;8.70
32895;DHT22;19251;49.484;8.260;2023-04-25T18:54:57;14.00;9.00
32895;DHT22;19251;49.484;8.260;2023-04-25T18:59:59;13.90;9.20
32895;DHT22;19251;49.484;8.260;2023-04-25T19:05:06;13.80;9.50
32895;DHT22;19251;49.484;8.260;2023-04-25T19:10:08;13.70;9.70
32895;DHT22;19251;49.484;8.260;2023-04-25T19:20:13;13.50;9.90
32895;DHT22;19251;49.484;8.260;2023-04-25T19:25:17;13.40;10.10
32895;DHT22;19251;49.484;8.260;2023-04-25T19:30:19;13.20;10.40
32895;DHT22;19251;49.484;8.260;2023-04-25T19:35:21;13.10;10.70
32895;DHT22;19251;49.484;8.260;2023-04-25T19:40:24;13.00;10.80
32895;DHT22;19251;49.484;8.260;2023-04-25T19:45:27;13.00;11.00
32895;DHT22;19251;49.484;8.260;2023-04-25T19:50:29;12.90;11.00
32895;DHT22;19251;49.484;8.260;2023-04-25T19:55:32;12.90;11.10
32895;DHT22;19251;49.484;8.260;2023-04-25T20:00:34;12.90;11.40
32895;DHT22;19251;49.484;8.260;2023-04-25T20:05:36;12.80;11.50
32895;DHT22;19251;49.484;8.260;2023-04-25T20:10:38;12.80;11.60
32895;DHT22;19251;49.484;8.260;2023-04-25T20:15:40;12.70;11.70
32895;DHT22;19251;49.484;8.260;2023-04-25T20:20:43;12.70;12.00
32895;DHT22;19251;49.484;8.260;2023-04-25T20:30:48;12.50;12.00
32895;DHT22;19251;49.484;8.260;2023-04-25T20:40:53;12.50;12.60
32895;DHT22;19251;49.484;8.260;2023-04-25T20:45:57;12.40;12.50
32895;DHT22;19251;49.484;8.260;2023-04-25T20:51:00;12.30;12.60
32895;DHT22;19251;49.484;8.260;2023-04-25T20:56:03;12.20;12.70
32895;DHT22;19251;49.484;8.260;2023-04-25T21:01:07;12.20;12.90
32895;DHT22;19251;49.484;8.260;2023-04-25T21:06:09;12.20;12.90
32895;DHT22;19251;49.484;8.260;2023-04-25T21:11:11;12.20;13.00
32895;DHT22;19251;49.484;8.260;2023-04-25T21:16:13;12.20;13.10
32895;DHT22;19251;49.484;8.260;2023-04-25T21:21:15;12.10;13.00
32895;DHT22;19251;49.484;8.260;2023-04-25T21:26:18;12.10;13.20
32895;DHT22;19251;49.484;8.260;2023-04-25T21:31:20;11.90;13.10
32895;DHT22;19251;49.484;8.260;2023-04-25T21:36:23;11.70;13.10
32895;DHT22;19251;49.484;8.260;2023-04-25T21:41:25;11.60;13.10
32895;DHT22;19251;49.484;8.260;2023-04-25T21:46:27;11.40;13.10
32895;DHT22;19251;49.484;8.260;2023-04-25T21:51:29;11.10;13.20
32895;DHT22;19251;49.484;8.260;2023-04-25T21:56:33;10.90;13.20
32895;DHT22;19251;49.484;8.260;2023-04-25T22:01:35;10.80;13.50
32895;DHT22;19251;49.484;8.260;2023-04-25T22:06:38;10.60;13.70
32895;DHT22;19251;49.484;8.260;2023-04-25T22:11:40;10.50;13.60
32895;DHT22;19251;49.484;8.260;2023-04-25T22:21:46;10.30;13.70
32895;DHT22;19251;49.484;8.260;2023-04-25T22:26:49;10.20;13.90
32895;DHT22;19251;49.484;8.260;2023-04-25T22:31:51;10.10;14.10
32895;DHT22;19251;49.484;8.260;2023-04-25T22:36:53;10.00;14.20
32895;DHT22;19251;49.484;8.260;2023-04-25T22:41:56;9.90;15.10
32895;DHT22;19251;49.484;8.260;2023-04-25T22:46:59;9.90;15.20
32895;DHT22;19251;49.484;8.260;2023-04-25T22:52:02;9.80;15.40
32895;DHT22;19251;49.484;8.260;2023-04-25T22:57:05;9.70;15.50
32895;DHT22;19251;49.484;8.260;2023-04-25T23:02:08;9.70;15.60
32895;DHT22;19251;49.484;8.260;2023-04-25T23:07:11;9.60;15.80
32895;DHT22;19251;49.484;8.260;2023-04-25T23:12:17;9.50;15.90
32895;DHT22;19251;49.484;8.260;2023-04-25T23:17:20;9.40;15.80
32895;DHT22;19251;49.484;8.260;2023-04-25T23:22:22;9.40;16.10
32895;DHT22;19251;49.484;8.260;2023-04-25T23:27:25;9.30;16.20
32895;DHT22;19251;49.484;8.260;2023-04-25T23:32:27;9.20;16.40
32895;DHT22;19251;49.484;8.260;2023-04-25T23:37:33;9.20;16.40
32895;DHT22;19251;49.484;8.260;2023-04-25T23:42:35;9.10;16.40
32895;DHT22;19251;49.484;8.260;2023-04-25T23:47:37;9.00;16.40
32895;DHT22;19251;49.484;8.260;2023-04-25T23:52:40;9.00;16.50
32895;DHT22;19251;49.484;8.260;2023-04-25T23:57:42;8.90;16.50
